Home > Products > Valid Products > TAF

000
FTUS44 KEWX 290403 AAC
TAFSAT
TAF AMD
KSAT 290403Z 2904/3006 15013KT P6SM BKN018 OVC250
     FM290600 34025G40KT 5SM -SHRA BR SCT008 OVC035
      TEMPO 2906/2907 1SM +TSRA SCT008 OVC035CB
     FM290700 34008KT 5SM -TSRA SCT008 OVC035CB
     FM291100 15007KT P6SM BKN012 OVC040
     FM291600 15011KT P6SM BKN025 BKN040
     FM291900 15012KT P6SM BKN040=



000
FTUS44 KEWX 290338 AAB
TAFSAT
TAF AMD
KSAT 290338Z 2904/3006 14012KT P6SM BKN022 BKN250
     FM290500 15010KT P6SM VCSH OVC015
     FM290600 34025G40KT 5SM -SHRA BR SCT008 OVC035
      TEMPO 2906/2907 1SM +TSRA SCT008 OVC035CB
     FM290700 34008KT 5SM -TSRA SCT008 OVC035CB
     FM291100 15007KT P6SM BKN012 OVC040
     FM291600 15011KT P6SM BKN025 BKN040
     FM291900 15012KT P6SM BKN040=



000
FTUS44 KEWX 290334 AAB
TAFAUS
TAF AMD
KAUS 290334Z 2904/3006 16011KT P6SM SCT250
     FM290500 17009KT P6SM VCSH OVC015
     FM290600 34025G40KT 5SM -SHRA BR SCT008 OVC035
      TEMPO 2906/2907 1SM +TSRA BR SCT008 OVC035CB
     FM290700 34008KT 5SM -TSRA SCT008 OVC035CB
     FM291100 15008KT P6SM BKN012 OVC035
     FM291500 16012KT P6SM BKN025 BKN040
     FM291800 16012KT P6SM BKN040=



000
FTUS44 KEWX 290316 AAA
TAFDRT
TAF AMD
KDRT 290316Z 2903/2924 10008KT P6SM SKC
     FM290400 36020G35KT 5SM -SHRA BR BKN035
      TEMPO 2904/2906 2SM +TSRA OVC030CB
     FM290800 VRB03KT P6SM VCSH OVC025
     FM291700 14013KT P6SM SCT025=



000
FTUS44 KEWX 290304 AAA
TAFSAT
TAF AMD
KSAT 290304Z 2903/3006 14012KT P6SM BKN022 BKN250
     FM290500 15010KT 5SM -SHRA BR OVC015
      TEMPO 2906/2910 VRB25G40KT 1SM +TSRA SCT008 OVC035CB
     FM291600 15011KT P6SM BKN025 BKN040=



000
FTUS44 KEWX 290304 AAA
TAFSAT
TAF AMD
KSAT 290304Z 2903/3006 14012KT P6SM BKN022 BKN250
     FM290500 15010KT 5SM -SHRA BR OVC015
      TEMPO 2906/2910 VRB25G40KT 1SM +TSRA SCT008 OVC035CB
     FM291600 15011KT P6SM BKN025 BKN040=



000
FTUS44 KEWX 290302 AAA
TAFAUS
TAF AMD
KAUS 290302Z 2903/3006 16011KT P6SM SCT250
     FM290500 17009KT 5SM -SHRA BR OVC015
      TEMPO 2906/2910 VRB25G40KT 1SM +TSRA SCT008 OVC035CB
     FM291700 16012KT P6SM BKN025 BKN040=



000
FTUS44 KEWX 282338
TAFAUS
TAF
KAUS 282338Z 2900/3006 15016G22KT P6SM SCT040 SCT250
     FM290500 17005KT P6SM OVC015
     FM290700 25010KT 6SM -SHRA OVC008
      TEMPO 2907/2911 2SM +TSRA OVC008CB
     FM291700 16012KT P6SM BKN025 BKN040=



000
FTUS44 KEWX 282338
TAFSAT
TAF
KSAT 282338Z 2900/3006 14016G23KT P6SM SCT030 SCT060 SCT250
     FM290500 15010KT P6SM OVC015
     FM290700 25010KT 6SM -SHRA OVC008
      TEMPO 2907/2910 2SM +TSRA OVC008CB
     FM291600 15011KT P6SM BKN025 BKN040=



000
FTUS44 KEWX 282338
TAFDRT
TAF
KDRT 282338Z 2900/2924 13013G20KT P6SM FEW045
     FM290200 12012KT 6SM -SHRA BKN035
      TEMPO 2902/2906 VRB30KT 2SM +TSRA OVC030CB
     FM290800 12010KT P6SM OVC015
     FM291700 14013KT P6SM SCT025=



000
FTUS44 KEWX 281906 AAB
TAFAUS
TAF AMD
KAUS 281906Z 2819/2924 16012KT P6SM BKN025 BKN040
      TEMPO 2819/2822 VRB20G30KT 5SM TSRA OVC020CB
     FM282200 16012KT P6SM BKN040
     FM290500 17005KT P6SM OVC015
     FM290700 15010KT 6SM -SHRA OVC008
      TEMPO 2907/2911 4SM -TSRA OVC008CB
     FM291500 17010KT P6SM OVC015
     FM291900 16012KT P6SM BKN025 BKN040=



000
FTUS44 KEWX 281906 AAB
TAFAUS
TAF AMD
KAUS 281906Z 2819/2924 16012KT P6SM BKN025 BKN040
      TEMPO 2819/2822 VRB20G30KT 5SM TSRA OVC020CB
     FM282200 16012KT P6SM BKN040
     FM290500 17005KT P6SM OVC015
     FM290700 15010KT 6SM -SHRA OVC008
      TEMPO 2907/2911 4SM -TSRA OVC008CB
     FM291500 17010KT P6SM OVC015
     FM291900 16012KT P6SM BKN025 BKN040=



000
FTUS44 KEWX 281822 AAA
TAFAUS
TAF AMD
KAUS 281822Z 2818/2924 16012KT P6SM BKN025 BKN040
      TEMPO 2818/2822 18020G30KT 5SM TSRA OVC020CB
     FM282200 16012KT P6SM BKN040
     FM290500 17005KT P6SM OVC015
     FM290800 17005KT 4SM BR OVC008
     FM291500 17010KT P6SM OVC015
     FM291900 16012KT P6SM BKN025 BKN040=



000
FTUS44 KEWX 281822 AAA
TAFAUS
TAF AMD
KAUS 281822Z 2818/2924 16012KT P6SM BKN025 BKN040
      TEMPO 2818/2822 18020G30KT 5SM TSRA OVC020CB
     FM282200 16012KT P6SM BKN040
     FM290500 17005KT P6SM OVC015
     FM290800 17005KT 4SM BR OVC008
     FM291500 17010KT P6SM OVC015
     FM291900 16012KT P6SM BKN025 BKN040=



000
FTUS44 KEWX 281750
TAFSAT
TAF
KSAT 281750Z 2818/2924 17012KT P6SM SCT025 BKN050
      TEMPO 2819/2822 5SM -TSRA BKN025CB
     FM290500 15010KT P6SM OVC015
     FM290800 15010KT 6SM -SHRA OVC008
      TEMPO 2908/2912 4SM -TSRA OVC008CB
     FM291500 15012KT P6SM OVC015
     FM291900 16012KT P6SM BKN025 BKN040=



000
FTUS44 KEWX 281750
TAFAUS
TAF
KAUS 281750Z 2818/2924 16012KT P6SM BKN025 BKN040
      TEMPO 2818/2822 5SM TSRA OVC020CB
     FM282200 16012KT P6SM BKN040
     FM290500 17005KT P6SM OVC015
     FM290800 17005KT 4SM BR OVC008
     FM291500 17010KT P6SM OVC015
     FM291900 16012KT P6SM BKN025 BKN040=



000
FTUS44 KEWX 281750
TAFDRT
TAF
KDRT 281750Z 2818/2918 12012G22KT P6SM SCT025 BKN045
     FM282100 13015KT P6SM BKN050
     FM290200 12012KT 6SM -SHRA BKN025
      TEMPO 2902/2906 -TSRA OVC040CB
     FM290800 12010KT P6SM OVC015
     FM291600 14013KT P6SM BKN025=



000
FTUS44 KEWX 281711 AAA
TAFAUS
TAF AMD
KAUS 281711Z 2817/2918 16012KT P6SM BKN025 BKN040
      TEMPO 2817/2819 5SM TSRA OVC020CB
     FM281900 16012KT P6SM BKN040
     FM290500 17005KT P6SM OVC015
     FM290800 17005KT 4SM BR OVC008
     FM291500 17015KT P6SM OVC015=



000
FTUS44 KEWX 281133
TAFDRT
TAF
KDRT 281133Z 2812/2912 12010KT P6SM BKN025 OVC035
     FM281300 12010KT P6SM BKN015
     FM282100 13015KT P6SM BKN050 PROB30 2902/2906 -TSRA OVC040CB
     FM290800 11005KT P6SM OVC015=



000
FTUS44 KEWX 281133
TAFAUS
TAF
KAUS 281133Z 2812/2918 16005KT P6SM OVC009
     FM281500 16010KT P6SM OVC025
     FM281900 16012KT P6SM BKN040
     FM290500 17005KT P6SM OVC015
     FM290800 17005KT 4SM BR OVC008
     FM291500 17015KT P6SM OVC015=



000
FTUS44 KEWX 281133
TAFSAT
TAF
KSAT 281133Z 2812/2918 14008KT P6SM OVC009
     FM281500 14012KT P6SM OVC025
     FM281900 14015KT P6SM BKN040
     FM290500 15010KT P6SM OVC015
     FM290800 15010KT 4SM BR OVC008
     FM291500 15012KT P6SM OVC015=



000
FTUS44 KEWX 280526
TAFAUS
TAF
KAUS 280526Z 2806/2912 13005KT P6SM OVC015
     FM281000 16005KT 4SM BR OVC008
     FM281500 16010KT P6SM OVC025
     FM281900 16012KT P6SM BKN040
     FM290500 17005KT P6SM OVC015
     FM290800 17005KT 4SM BR OVC008=



000
FTUS44 KEWX 280526
TAFDRT
TAF
KDRT 280526Z 2806/2906 12010KT P6SM SCT050
     FM280800 11010KT P6SM OVC015
     FM281100 11010KT P6SM OVC007
     FM281500 12015KT P6SM BKN015
     FM282100 13015KT P6SM BKN050 PROB30 2902/2906 -TSRA OVC040CB=



000
FTUS44 KEWX 280526
TAFSAT
TAF
KSAT 280526Z 2806/2912 14010KT P6SM OVC015
     FM280800 14008KT 5SM BR OVC008
     FM281500 14012KT P6SM OVC025
     FM281900 14015KT P6SM BKN040
     FM290500 15010KT P6SM OVC015
     FM290800 15010KT 4SM BR OVC008=



000
FTUS44 KEWX 280433 AAA
TAFSAT
TAF AMD
KSAT 280433Z 2805/2906 14010KT P6SM OVC015
     FM280800 14008KT 5SM BR OVC008
     FM281500 14012KT P6SM OVC025
     FM281900 14015KT P6SM BKN040=



000
FTUS44 KEWX 280431 AAA
TAFAUS
TAF AMD
KAUS 280431Z 2805/2906 13005KT P6SM OVC015
     FM281000 16005KT 4SM BR OVC008
     FM281500 16009KT P6SM OVC025
     FM281900 16013KT P6SM BKN040=



000
FTUS44 KEWX 272320
TAFSAT
TAF
KSAT 272320Z 2800/2906 14012KT P6SM SCT040
     FM280600 14008KT P6SM OVC015
     FM280800 14008KT 5SM BR OVC008
     FM281500 14012KT P6SM OVC025
     FM281900 14015KT P6SM BKN040=



000
FTUS44 KEWX 272320
TAFAUS
TAF
KAUS 272320Z 2800/2906 16012KT P6SM SCT030 BKN250
     FM280600 16005KT 6SM BR OVC015
     FM281000 16005KT 4SM BR OVC008
     FM281500 16009KT P6SM OVC025
     FM281900 16013KT P6SM BKN040=



000
FTUS44 KEWX 272320
TAFDRT
TAF
KDRT 272320Z 2800/2824 13013KT P6SM SCT050
     FM280800 11012KT P6SM OVC015
     FM281100 11012KT P6SM OVC007
     FM281500 12014KT P6SM BKN015
     FM282100 13018KT P6SM BKN050=



000
FTUS44 KEWX 272320
TAFAUS
TAF
KAUS 272320Z 2800/2906 16012KT P6SM SCT030 BKN250
     FM280600 16005KT 6SM BR OVC015
     FM281000 16005KT 4SM BR OVC008
     FM281500 16009KT P6SM OVC025
     FM281900 16013KT P6SM BKN040=



000
FTUS44 KEWX 272320
TAFSAT
TAF
KSAT 272320Z 2800/2906 14012KT P6SM SCT040
     FM280600 14008KT P6SM OVC015
     FM280800 14008KT 5SM BR OVC008
     FM281500 14012KT P6SM OVC025
     FM281900 14015KT P6SM BKN040=



000
FTUS44 KEWX 272320
TAFDRT
TAF
KDRT 272320Z 2800/2824 13013KT P6SM SCT050
     FM280800 11012KT P6SM OVC015
     FM281100 11012KT P6SM OVC007
     FM281500 12014KT P6SM BKN015
     FM282100 13018KT P6SM BKN050=



000
FTUS44 KEWX 271917 AAA
TAFAUS
TAF AMD
KAUS 271917Z 2719/2824 10005KT P6SM SCT025 BKN200
     FM272100 14010KT P6SM SCT030
     FM280700 16005KT 4SM BR OVC015
     FM281000 16005KT 4SM BR OVC008
     FM281500 16010KT P6SM OVC025
     FM282000 16010KT P6SM BKN040=



000
FTUS44 KEWX 271730
TAFSAT
TAF
KSAT 271730Z 2718/2824 14012KT P6SM SCT015 BKN030 BKN070
     FM272000 14012KT P6SM BKN040
     FM280500 14008KT P6SM OVC015
     FM280800 14008KT 5SM BR OVC008
     FM281500 14012KT P6SM OVC025
     FM281900 14012KT P6SM BKN040=



000
FTUS44 KEWX 271730
TAFDRT
TAF
KDRT 271730Z 2718/2818 12012KT P6SM SCT020 BKN027 OVC035
     FM272000 13012G22KT P6SM BKN050
     FM280700 11012KT P6SM OVC015
     FM280900 11012KT P6SM OVC007
     FM281500 12011KT P6SM BKN015=



000
FTUS44 KEWX 271730
TAFSAT
TAF
KSAT 271730Z 2718/2824 14012KT P6SM SCT015 BKN030 BKN070
     FM272000 14012KT P6SM BKN040
     FM280500 14008KT P6SM OVC015
     FM280800 14008KT 5SM BR OVC008
     FM281500 14012KT P6SM OVC025
     FM281900 14012KT P6SM BKN040=



000
FTUS44 KEWX 271730
TAFAUS
TAF
KAUS 271730Z 2718/2824 15010KT P6SM VCSH OVC005
     FM272000 15012KT P6SM BKN035
     FM280700 16005KT 4SM BR OVC015
     FM281000 16005KT 4SM BR OVC008
     FM281500 16010KT P6SM OVC025
     FM282000 16010KT P6SM BKN040=



000
FTUS44 KEWX 271730
TAFAUS
TAF
KAUS 271730Z 2718/2824 15010KT P6SM VCSH OVC005
     FM272000 15012KT P6SM BKN035
     FM280700 16005KT 4SM BR OVC015
     FM281000 16005KT 4SM BR OVC008
     FM281500 16010KT P6SM OVC025
     FM282000 16010KT P6SM BKN040=



000
FTUS44 KEWX 271547 AAB
TAFAUS
TAF AMD
KAUS 271547Z 2716/2818 11005KT P6SM BKN015
      TEMPO 2716/2717 VRB15KT 3SM TSRA BKN007CB
     FM271800 16012KT P6SM BKN040
     FM280700 16005KT 4SM BR OVC015
     FM281000 16005KT 4SM BR OVC008
     FM281500 16010KT P6SM OVC025=



000
FTUS44 KEWX 271547 AAB
TAFAUS
TAF AMD
KAUS 271547Z 2716/2818 11005KT P6SM BKN015
      TEMPO 2716/2717 VRB15KT 3SM TSRA BKN007CB
     FM271800 16012KT P6SM BKN040
     FM280700 16005KT 4SM BR OVC015
     FM281000 16005KT 4SM BR OVC008
     FM281500 16010KT P6SM OVC025=



000
FTUS44 KEWX 271418 AAA
TAFSAT
TAF AMD
KSAT 271418Z 2714/2818 15008KT 5SM BR BKN015
     FM271700 16012KT P6SM BKN040
     FM280700 14010KT 4SM BR OVC015
     FM280900 14010KT 4SM BR OVC008
     FM281500 14012KT P6SM OVC025=



000
FTUS44 KEWX 271418 AAA
TAFSAT
TAF AMD
KSAT 271418Z 2714/2818 15008KT 5SM BR BKN015
     FM271700 16012KT P6SM BKN040
     FM280700 14010KT 4SM BR OVC015
     FM280900 14010KT 4SM BR OVC008
     FM281500 14012KT P6SM OVC025=



000
FTUS44 KEWX 271410 AAA
TAFAUS
TAF AMD
KAUS 271410Z 2714/2818 05005KT P6SM BKN015
      TEMPO 2714/2716 VRB15KT 3SM TSRA BKN010CB
     FM271700 16012KT P6SM BKN040
     FM280700 16005KT 4SM BR OVC015
     FM281000 16005KT 4SM BR OVC008
     FM281500 16010KT P6SM OVC025=



000
FTUS44 KEWX 271140
TAFSAT
TAF
KSAT 271140Z 2712/2818 13005KT P6SM OVC008
     FM271500 16010KT P6SM BKN015
     FM271700 16012KT P6SM BKN040
     FM280700 14010KT 4SM BR OVC015
     FM280900 14010KT 4SM BR OVC008
     FM281500 14012KT P6SM OVC025=



000
FTUS44 KEWX 271140
TAFAUS
TAF
KAUS 271140Z 2712/2818 05005KT P6SM BKN015
     FM271700 16012KT P6SM BKN040
     FM280700 16005KT 4SM BR OVC015
     FM281000 16005KT 4SM BR OVC008
     FM281500 16010KT P6SM OVC025=



000
FTUS44 KEWX 271140
TAFSAT
TAF
KSAT 271140Z 2712/2818 13005KT P6SM OVC008
     FM271500 16010KT P6SM BKN015
     FM271700 16012KT P6SM BKN040
     FM280700 14010KT 4SM BR OVC015
     FM280900 14010KT 4SM BR OVC008
     FM281500 14012KT P6SM OVC025=



000
FTUS44 KEWX 271140
TAFDRT
TAF
KDRT 271140Z 2712/2812 11010KT P6SM OVC010
     FM271600 13012KT P6SM BKN015
     FM271800 13012G22KT P6SM BKN040
     FM280700 11012KT P6SM OVC015=



000
FTUS44 KEWX 270914 AAA
TAFDRT
TAF AMD
KDRT 270914Z 2709/2806 11010KT P6SM BKN035 OVC040
     FM271100 11010KT P6SM OVC015
     FM271600 13012KT P6SM BKN015
     FM271800 13012G22KT P6SM BKN040=



000
FTUS44 KEWX 270912 AAA
TAFSAT
TAF AMD
KSAT 270912Z 2709/2812 13008KT P6SM OVC008
     FM271500 16010KT P6SM BKN015
     FM271700 16013KT P6SM BKN040
     FM280700 14010KT 4SM BR OVC015=



000
FTUS44 KEWX 270911 AAA
TAFAUS
TAF AMD
KAUS 270911Z 2709/2812 05005KT P6SM BKN015
     FM271100 16005KT 5SM BR OVC008
     FM271500 17010KT P6SM BKN015
     FM271700 16012KT P6SM BKN040
     FM280700 16005KT 4SM BR OVC015=



000
FTUS44 KEWX 270530
TAFAUS
TAF
KAUS 270530Z 2706/2812 16010KT P6SM BKN025
     FM270700 16010KT P6SM OVC015
     FM270900 16005KT 5SM BR OVC006
     FM271500 17010KT P6SM BKN015
     FM271700 16012KT P6SM BKN040
     FM280700 16005KT 4SM BR OVC015=



000
FTUS44 KEWX 270530
TAFDRT
TAF
KDRT 270530Z 2706/2806 11010KT P6SM BKN035 OVC040
     FM270800 11010KT P6SM OVC015
     FM271000 11010KT 5SM BR OVC008
     FM271600 13012KT P6SM BKN015
     FM271800 13012G22KT P6SM BKN040=



000
FTUS44 KEWX 270530
TAFSAT
TAF
KSAT 270530Z 2706/2812 13010KT P6SM OVC015
     FM270700 13008KT 5SM BR OVC006
     FM271500 16010KT P6SM BKN015
     FM271700 16013KT P6SM BKN040
     FM280700 14010KT 4SM BR OVC015=



000
FTUS44 KEWX 270530
TAFDRT
TAF
KDRT 270530Z 2706/2806 11010KT P6SM BKN035 OVC040
     FM270800 11010KT P6SM OVC015
     FM271000 11010KT 5SM BR OVC008
     FM271600 13012KT P6SM BKN015
     FM271800 13012G22KT P6SM BKN040=



000
FTUS44 KEWX 270530
TAFAUS
TAF
KAUS 270530Z 2706/2812 16010KT P6SM BKN025
     FM270700 16010KT P6SM OVC015
     FM270900 16005KT 5SM BR OVC006
     FM271500 17010KT P6SM BKN015
     FM271700 16012KT P6SM BKN040
     FM280700 16005KT 4SM BR OVC015=



000
FTUS44 KEWX 270530
TAFSAT
TAF
KSAT 270530Z 2706/2812 13010KT P6SM OVC015
     FM270700 13008KT 5SM BR OVC006
     FM271500 16010KT P6SM BKN015
     FM271700 16013KT P6SM BKN040
     FM280700 14010KT 4SM BR OVC015=



000
FTUS44 KEWX 270427 AAA
TAFAUS
TAF AMD
KAUS 270427Z 2704/2806 16011KT P6SM SCT035 BKN200
     FM270500 16010KT P6SM OVC015
     FM270700 16005KT 5SM BR OVC006
     FM271500 17009KT P6SM BKN015
     FM271700 16013KT P6SM BKN040=



000
FTUS44 KEWX 262342
TAFDRT
TAF
KDRT 262342Z 2700/2724 10012KT P6SM VCTS BKN150CB
     FM270100 11010KT P6SM SCT040 BKN200
     FM270500 12009KT P6SM OVC015
     FM271000 12009KT 5SM BR OVC008
     FM271600 13012KT P6SM BKN015
     FM271800 13012G22KT P6SM BKN040=



000
FTUS44 KEWX 262342
TAFAUS
TAF
KAUS 262342Z 2700/2806 16011KT P6SM SCT035 BKN200
     FM270300 15008KT P6SM OVC015
     FM270700 16005KT 5SM BR OVC006
     FM271500 17009KT P6SM BKN015
     FM271700 16013KT P6SM BKN040=



000
FTUS44 KEWX 262342
TAFSAT
TAF
KSAT 262342Z 2700/2806 15011KT P6SM SCT040 BKN150
     FM270400 13009KT P6SM OVC015
     FM270700 13008KT 5SM BR OVC006
     FM271500 16010KT P6SM BKN015
     FM271700 16013KT P6SM BKN040=



000
FTUS44 KEWX 262159 AAB
TAFDRT
TAF AMD
KDRT 262159Z 2622/2718 13012G22KT P6SM VCTS BKN150CB
     FM270200 13009KT P6SM SCT040 BKN200
     FM270600 13009KT P6SM OVC015
     FM270800 12007KT 5SM BR OVC007
     FM271600 13008KT P6SM BKN015
     FM271700 13012KT P6SM BKN040=



000
FTUS44 KEWX 261915 AAA
TAFDRT
TAF AMD
KDRT 261915Z 2619/2718 14009KT P6SM VCTS FEW040 BKN150CB
     FM270200 13009KT P6SM SCT040 BKN200
     FM270600 13009KT P6SM OVC015
     FM270800 12007KT 5SM BR OVC007
     FM271600 13008KT P6SM BKN015
     FM271700 13012KT P6SM BKN040=



000
FTUS44 KEWX 261915 AAA
TAFSAT
TAF AMD
KSAT 261915Z 2619/2724 15011KT P6SM SCT030 BKN050
     FM270600 14009KT P6SM OVC010
     FM270800 14007KT 5SM BR OVC004
     FM271600 17008KT P6SM BKN015
     FM271800 16012KT P6SM BKN040=



000
FTUS44 KEWX 261915 AAA
TAFAUS
TAF AMD
KAUS 261915Z 2619/2724 17011KT P6SM SCT028 BKN035
     FM270600 14009KT P6SM OVC010
     FM270800 17005KT 4SM BR OVC004
     FM271600 17008KT P6SM BKN015
     FM271800 16010KT P6SM BKN040=



000
FTUS44 KEWX 261740
TAFAUS
TAF
KAUS 261740Z 2618/2724 18010KT P6SM BKN014 BKN019 OVC028
     FM262000 16007KT P6SM BKN035
     FM270600 14009KT P6SM OVC010
     FM270800 17005KT 4SM BR OVC004
     FM271600 17008KT P6SM BKN015
     FM271800 16010KT P6SM BKN040=



000
FTUS44 KEWX 261740
TAFSAT
TAF
KSAT 261740Z 2618/2724 18009KT P6SM BKN019 BKN040
     FM262000 16007KT P6SM BKN035
     FM270600 14009KT P6SM OVC010
     FM270800 14007KT 5SM BR OVC004
     FM271600 17008KT P6SM BKN015
     FM271800 16012KT P6SM BKN040=



000
FTUS44 KEWX 261740
TAFDRT
TAF
KDRT 261740Z 2618/2718 14012KT P6SM SCT025 BKN035
     FM262000 14012G22KT P6SM VCTS BKN035 OVC120CB
     FM270600 13009KT P6SM OVC015
     FM270800 12007KT 5SM BR OVC007
     FM271600 13008KT P6SM BKN015
     FM271700 13012KT P6SM BKN040=



000
FTUS44 KEWX 261505 AAC
TAFSAT
TAF AMD
KSAT 261505Z 2615/2718 12006KT P6SM OVC009
     FM261700 14008KT P6SM BKN015
     FM262000 13007KT P6SM BKN050
     FM270600 12006KT P6SM OVC015=



000
FTUS44 KEWX 261505 AAB
TAFAUS
TAF AMD
KAUS 261505Z 2615/2718 19004KT 4SM BR OVC006
     FM261700 16008KT P6SM BKN010
     FM262000 16007KT P6SM SCT035
     FM270800 18005KT 4SM BR SCT025=



000
FTUS44 KEWX 261505 AAC
TAFSAT
TAF AMD
KSAT 261505Z 2615/2718 12006KT P6SM OVC009
     FM261700 14008KT P6SM BKN015
     FM262000 13007KT P6SM BKN050
     FM270600 12006KT P6SM OVC015=



000
FTUS44 KEWX 261505 AAB
TAFAUS
TAF AMD
KAUS 261505Z 2615/2718 19004KT 4SM BR OVC006
     FM261700 16008KT P6SM BKN010
     FM262000 16007KT P6SM SCT035
     FM270800 18005KT 4SM BR SCT025=



000
FTUS44 KEWX 261505 AAC
TAFDRT
TAF AMD
KDRT 261505Z 2615/2712 12010KT P6SM SCT017 BKN120
     FM270800 11010KT P6SM BKN020=



000
FTUS44 KEWX 261346 AAB
TAFDRT
TAF AMD
KDRT 261346Z 2614/2712 12006KT 4SM BR VCTS OVC007CB
      TEMPO 2614/2616 4SM TSRA BR BKN015CB
     FM261700 14011KT P6SM SCT100
     FM270800 11010KT P6SM BKN020=



000
FTUS44 KEWX 261346 AAA
TAFAUS
TAF AMD
KAUS 261346Z 2614/2718 VRB03KT P6SM BKN004
     FM261600 16008KT P6SM BKN015
     FM261800 16007KT P6SM SCT035
     FM270800 18005KT 4SM BR SCT025=



000
FTUS44 KEWX 261346 AAB
TAFSAT
TAF AMD
KSAT 261346Z 2614/2718 11006KT P6SM OVC007
     FM261600 14008KT P6SM BKN015
     FM262000 13007KT P6SM BKN050
     FM270600 12006KT P6SM OVC015=



000
FTUS44 KEWX 261346 AAB
TAFDRT
TAF AMD
KDRT 261346Z 2614/2712 12006KT 4SM BR VCTS OVC007CB
      TEMPO 2614/2616 4SM TSRA BR BKN015CB
     FM261700 14011KT P6SM SCT100
     FM270800 11010KT P6SM BKN020=



000
FTUS44 KEWX 261346 AAA
TAFAUS
TAF AMD
KAUS 261346Z 2614/2718 VRB03KT P6SM BKN004
     FM261600 16008KT P6SM BKN015
     FM261800 16007KT P6SM SCT035
     FM270800 18005KT 4SM BR SCT025=



000
FTUS44 KEWX 261346 AAB
TAFSAT
TAF AMD
KSAT 261346Z 2614/2718 11006KT P6SM OVC007
     FM261600 14008KT P6SM BKN015
     FM262000 13007KT P6SM BKN050
     FM270600 12006KT P6SM OVC015=



000
FTUS44 KEWX 261145 AAA
TAFSAT
TAF AMD
KSAT 261145Z 2612/2718 VRB03KT P6SM BKN009
     FM261400 12005KT P6SM BKN015
     FM262000 16007KT P6SM BKN050
     FM270600 12006KT P6SM OVC015=



000
FTUS44 KEWX 261143 AAA
TAFDRT
TAF AMD
KDRT 261143Z 2612/2712 11007KT P6SM VCTS OVC008CB
      TEMPO 2612/2616 4SM TSRA BR BKN015CB
     FM261700 14011KT P6SM SCT100
     FM270800 11010KT P6SM BKN020=



000
FTUS44 KEWX 261120
TAFSAT
TAF
KSAT 261120Z 2612/2718 VRB03KT P6SM BKN012
     FM262000 16007KT P6SM BKN050
     FM270600 12006KT P6SM OVC015=



000
FTUS44 KEWX 261120
TAFDRT
TAF
KDRT 261120Z 2612/2712 11007KT P6SM VCTS OVC015CB
      TEMPO 2612/2616 4SM TSRA BR
     FM261700 14011KT P6SM SCT100
     FM270800 11010KT P6SM BKN020=



000
FTUS44 KEWX 261120
TAFAUS
TAF
KAUS 261120Z 2612/2718 VRB05KT P6SM FEW003 SCT025 SCT050
     FM261500 18008KT P6SM BKN015
     FM261800 16007KT P6SM SCT035
     FM270800 18005KT 4SM BR SCT025=



000
FTUS44 KEWX 261050 AAA
TAFAUS
TAF AMD
KAUS 261050Z 2611/2712 19005KT P6SM FEW003 SCT025 SCT050
     FM261500 18008KT P6SM BKN015
     FM262000 16007KT P6SM BKN035=



000
FTUS44 KEWX 260916 AAA
TAFDRT
TAF AMD
KDRT 260916Z 2609/2706 11007KT P6SM OVC015
     FM261800 14014KT P6SM BKN100=



000
FTUS44 KEWX 260914 AAB
TAFSAT
TAF AMD
KSAT 260914Z 2609/2712 VRB03KT P6SM BKN015
      TEMPO 2612/2616 3SM TSRA OVC015CB
     FM261600 17008KT P6SM BKN015
     FM262000 16007KT P6SM BKN035=



000
FTUS44 KEWX 260914 AAB
TAFSAT
TAF AMD
KSAT 260914Z 2609/2712 VRB03KT P6SM BKN015
      TEMPO 2612/2616 3SM TSRA OVC015CB
     FM261600 17008KT P6SM BKN015
     FM262000 16007KT P6SM BKN035=



000
FTUS44 KEWX 260704 AAA
TAFSAT
TAF AMD
KSAT 260704Z 2607/2712 15005KT P6SM OVC018
     FM260900 VRB03KT P6SM BKN007
     FM261000 15004KT 5SM BR OVC005
      TEMPO 2612/2616 3SM TSRA OVC015CB
     FM261600 17008KT P6SM BKN015
     FM262000 16007KT P6SM BKN035=



000
FTUS44 KEWX 260704 AAA
TAFSAT
TAF AMD
KSAT 260704Z 2607/2712 15005KT P6SM OVC018
     FM260900 VRB03KT P6SM BKN007
     FM261000 15004KT 5SM BR OVC005
      TEMPO 2612/2616 3SM TSRA OVC015CB
     FM261600 17008KT P6SM BKN015
     FM262000 16007KT P6SM BKN035=



000
FTUS44 KEWX 260534
TAFAUS
TAF
KAUS 260534Z 2606/2712 18005KT P6SM VCTS BKN050CB
     FM260800 17004KT P6SM OVC025
     FM261000 19005KT 5SM BR OVC003
     FM261500 18008KT P6SM BKN015
     FM262000 16007KT P6SM BKN035=



000
FTUS44 KEWX 260534
TAFDRT
TAF
KDRT 260534Z 2606/2706 VRB06KT P6SM SKC
     FM260900 11007KT P6SM VCTS OVC025CB
      TEMPO 2610/2614 3SM TSRA BR
     FM261800 14014KT P6SM BKN100=



000
FTUS44 KEWX 260534
TAFSAT
TAF
KSAT 260534Z 2606/2712 VRB03KT P6SM BKN011
     FM260700 15005KT 5SM BR OVC007
     FM260800 15004KT 5SM BR OVC005
      TEMPO 2612/2616 3SM TSRA OVC015CB
     FM261600 17008KT P6SM BKN015
     FM262000 16007KT P6SM BKN035=



    US Dept of Commerce
    National Oceanic and Atmospheric Administration
    National Weather Service
    1325 East West Highway
    Silver Spring, MD 20910
    Page Author: NWS Internet Services Team
Disclaimer
Information Quality
Credits
Glossary
Privacy Policy
Freedom of Information Act (FOIA)
About Us
Career Opportunities